createdAt,value
2022-09-22T00:04:36.825Z,56.10
2022-09-22T00:14:39.680Z,56.70
2022-09-22T00:24:42.006Z,57.10
2022-09-22T00:34:43.947Z,56.60
2022-09-22T00:44:46.841Z,54.70
2022-09-22T00:54:49.429Z,56.40
2022-09-22T01:04:54.766Z,54.90
2022-09-22T01:15:29.388Z,54.90
2022-09-22T01:26:05.885Z,55.00
2022-09-22T01:36:27.547Z,55.20
2022-09-22T01:46:41.889Z,54.90
2022-09-22T01:56:48.374Z,55.00
2022-09-22T02:07:00.409Z,55.90
2022-09-22T02:17:03.847Z,55.50
2022-09-22T02:27:16.445Z,55.00
2022-09-22T02:37:55.221Z,54.60
2022-09-22T02:48:20.024Z,54.10
2022-09-22T02:58:22.301Z,55.10
2022-09-22T03:08:24.264Z,53.10
2022-09-22T03:18:26.182Z,54.10
2022-09-22T03:28:28.507Z,55.40
2022-09-22T03:38:30.665Z,53.90
2022-09-22T03:48:33.582Z,53.30
2022-09-22T03:58:35.884Z,53.90
2022-09-22T04:08:38.085Z,54.10
2022-09-22T04:18:44.368Z,56.20
2022-09-22T04:28:46.923Z,53.90
2022-09-22T04:38:48.887Z,54.40
2022-09-22T04:48:51.082Z,54.20
2022-09-22T04:58:53.203Z,54.20
2022-09-22T05:08:55.309Z,53.30
2022-09-22T05:18:59.788Z,53.00
2022-09-22T05:29:02.030Z,53.40
2022-09-22T05:39:04.336Z,55.30
2022-09-22T05:49:06.735Z,55.50
2022-09-22T05:59:08.829Z,56.30
2022-09-22T06:09:10.827Z,58.00
2022-09-22T06:19:12.992Z,61.10
2022-09-22T06:29:15.330Z,65.20
2022-09-22T06:39:17.582Z,63.00
2022-09-22T06:49:20.873Z,66.50
2022-09-22T06:59:23.306Z,66.80
2022-09-22T07:09:26.711Z,63.70
2022-09-22T07:19:29.429Z,62.00
2022-09-22T07:29:31.461Z,58.20
2022-09-22T07:39:33.683Z,56.70
2022-09-22T07:49:35.724Z,54.40
2022-09-22T07:59:40.033Z,48.70
2022-09-22T08:09:43.108Z,48.80
2022-09-22T08:19:45.114Z,45.70
2022-09-22T08:29:47.012Z,41.40
2022-09-22T08:39:49.181Z,39.10
2022-09-22T08:50:12.949Z,39.60
2022-09-22T09:00:20.616Z,29.80
2022-09-22T09:10:30.173Z,30.40
2022-09-22T09:20:49.342Z,25.20
2022-09-22T09:30:54.898Z,26.30
2022-09-22T09:41:21.387Z,25.00
2022-09-22T09:51:26.821Z,20.10
2022-09-22T10:01:31.084Z,19.10
2022-09-22T10:11:36.724Z,18.50
2022-09-22T10:21:39.385Z,18.10
2022-09-22T10:31:45.044Z,17.10
2022-09-22T10:41:51.863Z,15.80
2022-09-22T10:52:00.680Z,16.20
2022-09-22T11:02:24.124Z,15.90
2022-09-22T11:12:46.642Z,17.10
2022-09-22T11:23:01.022Z,16.00
2022-09-22T11:33:23.619Z,16.40
2022-09-22T11:43:46.683Z,13.90
2022-09-22T11:53:57.069Z,12.30
2022-09-22T12:04:24.021Z,13.60
2022-09-22T12:14:26.663Z,12.70
2022-09-22T12:24:28.880Z,9.20
2022-09-22T12:34:44.442Z,9.20
2022-09-22T12:45:14.679Z,8.50
2022-09-22T12:55:24.624Z,7.20
2022-09-22T13:05:29.006Z,8.80
2022-09-22T13:15:34.326Z,5.70
2022-09-22T13:25:35.627Z,4.50
2022-09-22T13:35:43.770Z,7.40
2022-09-22T13:45:50.489Z,8.50
2022-09-22T13:55:53.341Z,7.00
2022-09-22T14:05:56.701Z,7.30
2022-09-22T14:15:59.084Z,7.70
2022-09-22T14:26:05.622Z,8.30
2022-09-22T14:36:23.944Z,5.90
2022-09-22T14:46:43.901Z,8.80
2022-09-22T14:56:46.923Z,8.20
2022-09-22T15:06:50.222Z,9.30
2022-09-22T15:16:52.626Z,9.20
2022-09-22T15:26:59.408Z,10.10
2022-09-22T15:37:01.130Z,10.90
2022-09-22T15:47:02.848Z,9.90
2022-09-22T15:57:07.033Z,10.70
2022-09-22T16:07:13.880Z,10.70
2022-09-22T16:17:15.581Z,10.60
2022-09-22T16:27:17.299Z,10.20
2022-09-22T16:37:19.626Z,11.80
2022-09-22T16:47:23.781Z,13.40
2022-09-22T16:57:25.137Z,14.80
2022-09-22T17:07:27.182Z,15.70
2022-09-22T17:17:28.580Z,17.30
2022-09-22T17:27:29.920Z,16.90
2022-09-22T17:37:32.038Z,22.40
2022-09-22T17:47:52.175Z,23.70
2022-09-22T17:57:54.454Z,24.90
2022-09-22T18:08:00.086Z,27.10
2022-09-22T18:18:01.605Z,27.70
2022-09-22T18:28:04.022Z,29.70
2022-09-22T18:38:05.941Z,28.80
2022-09-22T18:48:07.565Z,30.70
2022-09-22T18:58:09.121Z,31.00
2022-09-22T19:08:14.047Z,33.10
2022-09-22T19:18:15.603Z,33.10
2022-09-22T19:28:17.540Z,35.90
2022-09-22T19:38:19.939Z,33.50
2022-09-22T19:48:22.005Z,34.20
2022-09-22T19:58:24.303Z,35.10
2022-09-22T20:08:28.319Z,33.60
2022-09-22T20:18:31.836Z,33.50
2022-09-22T20:28:33.684Z,33.30
2022-09-22T20:38:35.316Z,34.60
2022-09-22T20:48:36.840Z,34.40
2022-09-22T20:58:45.463Z,34.50
2022-09-22T21:09:06.747Z,34.60
2022-09-22T21:19:09.361Z,34.20
2022-09-22T21:29:12.164Z,37.10
2022-09-22T21:39:13.700Z,40.00
2022-09-22T21:49:15.108Z,42.40
2022-09-22T21:59:16.900Z,41.70
2022-09-22T22:09:25.437Z,44.80
2022-09-22T22:19:28.598Z,48.50
2022-09-22T22:29:34.218Z,48.30
2022-09-22T22:39:35.603Z,49.00
2022-09-22T22:49:36.980Z,46.30
2022-09-22T22:59:38.340Z,48.40
2022-09-22T23:09:39.878Z,50.40
2022-09-22T23:19:42.716Z,49.80
2022-09-22T23:29:44.185Z,49.50
2022-09-22T23:39:45.358Z,50.40
2022-09-22T23:49:47.916Z,51.60
2022-09-22T23:59:49.099Z,53.10
